sensor_id;sensor_type;location;lat;lon;timestamp;temperature;humidity
20680;DHT22;10499;47.494;7.608;2022-07-04T00:00:27;22.80;99.90
20680;DHT22;10499;47.494;7.608;2022-07-04T00:02:52;22.80;99.90
20680;DHT22;10499;47.494;7.608;2022-07-04T00:05:18;22.90;99.90
20680;DHT22;10499;47.494;7.608;2022-07-04T00:07:45;22.90;99.90
20680;DHT22;10499;47.494;7.608;2022-07-04T00:10:14;22.80;99.90
20680;DHT22;10499;47.494;7.608;2022-07-04T00:12:40;22.80;99.90
20680;DHT22;10499;47.494;7.608;2022-07-04T00:15:06;22.70;99.90
20680;DHT22;10499;47.494;7.608;2022-07-04T00:17:33;22.70;99.90
20680;DHT22;10499;47.494;7.608;2022-07-04T00:19:58;22.70;99.90
20680;DHT22;10499;47.494;7.608;2022-07-04T00:22:24;22.70;99.90
20680;DHT22;10499;47.494;7.608;2022-07-04T00:24:50;22.60;99.90
20680;DHT22;10499;47.494;7.608;2022-07-04T00:27:16;22.60;99.90
20680;DHT22;10499;47.494;7.608;2022-07-04T00:29:42;22.60;99.90
20680;DHT22;10499;47.494;7.608;2022-07-04T00:32:08;22.60;99.90
20680;DHT22;10499;47.494;7.608;2022-07-04T00:34:34;22.60;99.90
20680;DHT22;10499;47.494;7.608;2022-07-04T00:36:59;22.60;99.90
20680;DHT22;10499;47.494;7.608;2022-07-04T00:39:25;22.60;99.90
20680;DHT22;10499;47.494;7.608;2022-07-04T00:41:51;22.60;99.90
20680;DHT22;10499;47.494;7.608;2022-07-04T00:44:16;22.60;99.90
20680;DHT22;10499;47.494;7.608;2022-07-04T00:46:43;22.70;99.90
20680;DHT22;10499;47.494;7.608;2022-07-04T00:49:10;22.70;99.90
20680;DHT22;10499;47.494;7.608;2022-07-04T00:51:41;22.60;99.90
20680;DHT22;10499;47.494;7.608;2022-07-04T00:54:08;22.40;99.90
20680;DHT22;10499;47.494;7.608;2022-07-04T00:56:36;22.30;99.90
20680;DHT22;10499;47.494;7.608;2022-07-04T00:59:02;22.30;99.90
20680;DHT22;10499;47.494;7.608;2022-07-04T01:01:28;22.30;99.90
20680;DHT22;10499;47.494;7.608;2022-07-04T01:03:53;22.20;99.90
20680;DHT22;10499;47.494;7.608;2022-07-04T01:06:19;22.20;99.90
20680;DHT22;10499;47.494;7.608;2022-07-04T01:08:45;22.10;99.90
20680;DHT22;10499;47.494;7.608;2022-07-04T01:11:12;22.00;99.90
20680;DHT22;10499;47.494;7.608;2022-07-04T01:13:39;21.90;99.90
20680;DHT22;10499;47.494;7.608;2022-07-04T01:16:07;21.80;99.90
20680;DHT22;10499;47.494;7.608;2022-07-04T01:18:33;21.80;99.90
20680;DHT22;10499;47.494;7.608;2022-07-04T01:20:59;21.80;99.90
20680;DHT22;10499;47.494;7.608;2022-07-04T01:23:25;21.80;99.90
20680;DHT22;10499;47.494;7.608;2022-07-04T01:25:51;21.70;99.90
20680;DHT22;10499;47.494;7.608;2022-07-04T01:28:22;21.60;99.90
20680;DHT22;10499;47.494;7.608;2022-07-04T01:30:48;21.60;99.90
20680;DHT22;10499;47.494;7.608;2022-07-04T01:33:14;21.60;99.90
20680;DHT22;10499;47.494;7.608;2022-07-04T01:35:40;21.60;99.90
20680;DHT22;10499;47.494;7.608;2022-07-04T01:38:06;21.60;99.90
20680;DHT22;10499;47.494;7.608;2022-07-04T01:40:32;21.70;99.90
20680;DHT22;10499;47.494;7.608;2022-07-04T01:42:57;21.70;99.90
20680;DHT22;10499;47.494;7.608;2022-07-04T01:45:26;21.70;99.90
20680;DHT22;10499;47.494;7.608;2022-07-04T01:47:51;21.60;99.90
20680;DHT22;10499;47.494;7.608;2022-07-04T01:50:17;21.60;99.90
20680;DHT22;10499;47.494;7.608;2022-07-04T01:52:43;21.60;99.90
20680;DHT22;10499;47.494;7.608;2022-07-04T01:55:10;21.50;99.90
20680;DHT22;10499;47.494;7.608;2022-07-04T01:57:37;21.30;99.90
20680;DHT22;10499;47.494;7.608;2022-07-04T02:00:06;21.20;99.90
20680;DHT22;10499;47.494;7.608;2022-07-04T02:02:51;21.10;99.90
20680;DHT22;10499;47.494;7.608;2022-07-04T02:05:17;21.00;99.90
20680;DHT22;10499;47.494;7.608;2022-07-04T02:07:43;20.90;99.90
20680;DHT22;10499;47.494;7.608;2022-07-04T02:10:09;20.80;99.90
20680;DHT22;10499;47.494;7.608;2022-07-04T02:12:35;20.80;99.90
20680;DHT22;10499;47.494;7.608;2022-07-04T02:15:19;20.80;99.90
20680;DHT22;10499;47.494;7.608;2022-07-04T02:17:45;20.70;99.90
20680;DHT22;10499;47.494;7.608;2022-07-04T02:20:10;20.70;99.90
20680;DHT22;10499;47.494;7.608;2022-07-04T02:22:36;20.70;99.90
20680;DHT22;10499;47.494;7.608;2022-07-04T02:25:03;20.70;99.90
20680;DHT22;10499;47.494;7.608;2022-07-04T02:27:28;20.60;99.90
20680;DHT22;10499;47.494;7.608;2022-07-04T02:29:54;20.60;99.90
20680;DHT22;10499;47.494;7.608;2022-07-04T02:32:20;20.60;99.90
20680;DHT22;10499;47.494;7.608;2022-07-04T02:34:45;20.50;99.90
20680;DHT22;10499;47.494;7.608;2022-07-04T02:37:11;20.50;99.90
20680;DHT22;10499;47.494;7.608;2022-07-04T02:39:37;20.40;99.90
20680;DHT22;10499;47.494;7.608;2022-07-04T02:42:02;20.40;99.90
20680;DHT22;10499;47.494;7.608;2022-07-04T02:44:28;20.30;99.90
20680;DHT22;10499;47.494;7.608;2022-07-04T02:46:55;20.40;99.90
20680;DHT22;10499;47.494;7.608;2022-07-04T02:49:22;20.40;99.90
20680;DHT22;10499;47.494;7.608;2022-07-04T02:51:48;20.50;99.90
20680;DHT22;10499;47.494;7.608;2022-07-04T02:54:14;20.50;99.90
20680;DHT22;10499;47.494;7.608;2022-07-04T02:56:41;20.60;99.90
20680;DHT22;10499;47.494;7.608;2022-07-04T02:59:07;20.60;99.90
20680;DHT22;10499;47.494;7.608;2022-07-04T03:01:32;20.60;99.90
20680;DHT22;10499;47.494;7.608;2022-07-04T03:03:58;20.60;99.90
20680;DHT22;10499;47.494;7.608;2022-07-04T03:06:24;20.60;99.90
20680;DHT22;10499;47.494;7.608;2022-07-04T03:08:50;20.50;99.90
20680;DHT22;10499;47.494;7.608;2022-07-04T03:11:18;20.50;99.90
20680;DHT22;10499;47.494;7.608;2022-07-04T03:13:44;20.50;99.90
20680;DHT22;10499;47.494;7.608;2022-07-04T03:16:10;20.40;99.90
20680;DHT22;10499;47.494;7.608;2022-07-04T03:18:36;20.40;99.90
20680;DHT22;10499;47.494;7.608;2022-07-04T03:21:02;20.40;99.90
20680;DHT22;10499;47.494;7.608;2022-07-04T03:23:32;20.20;99.90
20680;DHT22;10499;47.494;7.608;2022-07-04T03:25:59;20.10;99.90
20680;DHT22;10499;47.494;7.608;2022-07-04T03:28:24;20.10;99.90
20680;DHT22;10499;47.494;7.608;2022-07-04T03:30:50;20.10;99.90
20680;DHT22;10499;47.494;7.608;2022-07-04T03:33:16;20.10;99.90
20680;DHT22;10499;47.494;7.608;2022-07-04T03:35:41;20.10;99.90
20680;DHT22;10499;47.494;7.608;2022-07-04T03:38:07;20.20;99.90
20680;DHT22;10499;47.494;7.608;2022-07-04T03:40:33;20.20;99.90
20680;DHT22;10499;47.494;7.608;2022-07-04T03:43:00;20.20;99.90
20680;DHT22;10499;47.494;7.608;2022-07-04T03:45:26;20.10;99.90
20680;DHT22;10499;47.494;7.608;2022-07-04T03:47:52;20.00;99.90
20680;DHT22;10499;47.494;7.608;2022-07-04T03:50:17;19.90;99.90
20680;DHT22;10499;47.494;7.608;2022-07-04T03:52:43;19.90;99.90
20680;DHT22;10499;47.494;7.608;2022-07-04T03:55:09;19.80;99.90
20680;DHT22;10499;47.494;7.608;2022-07-04T03:57:35;19.70;99.90
20680;DHT22;10499;47.494;7.608;2022-07-04T04:00:01;19.70;99.90
20680;DHT22;10499;47.494;7.608;2022-07-04T04:02:27;19.70;99.90
20680;DHT22;10499;47.494;7.608;2022-07-04T04:04:53;19.70;99.90
20680;DHT22;10499;47.494;7.608;2022-07-04T04:07:37;19.70;99.90
20680;DHT22;10499;47.494;7.608;2022-07-04T04:10:03;19.70;99.90
20680;DHT22;10499;47.494;7.608;2022-07-04T04:12:28;19.70;99.90
20680;DHT22;10499;47.494;7.608;2022-07-04T04:14:54;19.80;99.90
20680;DHT22;10499;47.494;7.608;2022-07-04T04:17:19;19.80;99.90
20680;DHT22;10499;47.494;7.608;2022-07-04T04:19:45;19.70;99.90
20680;DHT22;10499;47.494;7.608;2022-07-04T04:22:11;19.80;99.90
20680;DHT22;10499;47.494;7.608;2022-07-04T04:24:37;19.80;99.90
20680;DHT22;10499;47.494;7.608;2022-07-04T04:27:03;19.80;99.90
20680;DHT22;10499;47.494;7.608;2022-07-04T04:29:28;19.90;99.90
20680;DHT22;10499;47.494;7.608;2022-07-04T04:31:54;19.90;99.90
20680;DHT22;10499;47.494;7.608;2022-07-04T04:34:19;19.90;99.90
20680;DHT22;10499;47.494;7.608;2022-07-04T04:36:45;20.00;99.90
20680;DHT22;10499;47.494;7.608;2022-07-04T04:39:11;20.00;99.90
20680;DHT22;10499;47.494;7.608;2022-07-04T04:41:36;20.10;99.90
20680;DHT22;10499;47.494;7.608;2022-07-04T04:44:02;20.20;99.90
20680;DHT22;10499;47.494;7.608;2022-07-04T04:46:28;20.20;99.90
20680;DHT22;10499;47.494;7.608;2022-07-04T04:48:54;20.20;99.90
20680;DHT22;10499;47.494;7.608;2022-07-04T04:51:19;20.30;99.90
20680;DHT22;10499;47.494;7.608;2022-07-04T04:53:45;20.20;99.90
20680;DHT22;10499;47.494;7.608;2022-07-04T04:56:11;20.10;99.90
20680;DHT22;10499;47.494;7.608;2022-07-04T04:58:36;20.10;99.90
20680;DHT22;10499;47.494;7.608;2022-07-04T05:01:02;20.00;99.90
20680;DHT22;10499;47.494;7.608;2022-07-04T05:03:28;20.00;99.90
20680;DHT22;10499;47.494;7.608;2022-07-04T05:05:54;19.90;99.90
20680;DHT22;10499;47.494;7.608;2022-07-04T05:08:20;19.90;99.90
20680;DHT22;10499;47.494;7.608;2022-07-04T05:10:45;19.80;99.90
20680;DHT22;10499;47.494;7.608;2022-07-04T05:13:11;19.80;99.90
20680;DHT22;10499;47.494;7.608;2022-07-04T05:15:36;19.60;99.90
20680;DHT22;10499;47.494;7.608;2022-07-04T05:18:02;19.60;99.90
20680;DHT22;10499;47.494;7.608;2022-07-04T05:20:28;19.50;99.90
20680;DHT22;10499;47.494;7.608;2022-07-04T05:22:53;19.40;99.90
20680;DHT22;10499;47.494;7.608;2022-07-04T05:25:19;19.50;99.90
20680;DHT22;10499;47.494;7.608;2022-07-04T05:27:45;19.30;99.90
20680;DHT22;10499;47.494;7.608;2022-07-04T05:30:11;19.30;99.90
20680;DHT22;10499;47.494;7.608;2022-07-04T05:32:40;19.30;99.90
20680;DHT22;10499;47.494;7.608;2022-07-04T05:35:07;19.40;99.90
20680;DHT22;10499;47.494;7.608;2022-07-04T05:37:33;19.40;99.90
20680;DHT22;10499;47.494;7.608;2022-07-04T05:39:59;19.50;99.90
20680;DHT22;10499;47.494;7.608;2022-07-04T05:42:25;19.70;99.90
20680;DHT22;10499;47.494;7.608;2022-07-04T05:44:51;19.80;99.90
20680;DHT22;10499;47.494;7.608;2022-07-04T05:47:17;19.80;99.90
20680;DHT22;10499;47.494;7.608;2022-07-04T05:49:42;19.90;99.90
20680;DHT22;10499;47.494;7.608;2022-07-04T05:52:08;20.00;99.90
20680;DHT22;10499;47.494;7.608;2022-07-04T05:54:34;20.10;99.90
20680;DHT22;10499;47.494;7.608;2022-07-04T05:57:00;20.20;99.90
20680;DHT22;10499;47.494;7.608;2022-07-04T05:59:25;20.30;99.90
20680;DHT22;10499;47.494;7.608;2022-07-04T06:01:51;20.40;99.90
20680;DHT22;10499;47.494;7.608;2022-07-04T06:04:17;20.60;99.90
20680;DHT22;10499;47.494;7.608;2022-07-04T06:06:43;20.60;99.90
20680;DHT22;10499;47.494;7.608;2022-07-04T06:09:09;20.60;99.90
20680;DHT22;10499;47.494;7.608;2022-07-04T06:11:35;20.70;99.90
20680;DHT22;10499;47.494;7.608;2022-07-04T06:14:00;20.90;99.90
20680;DHT22;10499;47.494;7.608;2022-07-04T06:16:26;21.10;99.90
20680;DHT22;10499;47.494;7.608;2022-07-04T06:18:52;21.30;99.90
20680;DHT22;10499;47.494;7.608;2022-07-04T06:21:18;21.40;99.90
20680;DHT22;10499;47.494;7.608;2022-07-04T06:23:43;21.50;99.90
20680;DHT22;10499;47.494;7.608;2022-07-04T06:26:09;21.50;99.90
20680;DHT22;10499;47.494;7.608;2022-07-04T06:28:35;21.60;99.90
20680;DHT22;10499;47.494;7.608;2022-07-04T06:31:01;21.80;99.90
20680;DHT22;10499;47.494;7.608;2022-07-04T06:33:27;21.80;99.90
20680;DHT22;10499;47.494;7.608;2022-07-04T06:35:52;21.90;99.90
20680;DHT22;10499;47.494;7.608;2022-07-04T06:38:30;22.00;99.90
20680;DHT22;10499;47.494;7.608;2022-07-04T06:40:57;22.10;99.90
20680;DHT22;10499;47.494;7.608;2022-07-04T06:43:23;22.10;99.90
20680;DHT22;10499;47.494;7.608;2022-07-04T06:45:49;22.10;99.90
20680;DHT22;10499;47.494;7.608;2022-07-04T06:48:15;22.10;99.90
20680;DHT22;10499;47.494;7.608;2022-07-04T06:50:41;22.00;99.90
20680;DHT22;10499;47.494;7.608;2022-07-04T06:53:08;22.10;99.90
20680;DHT22;10499;47.494;7.608;2022-07-04T06:55:34;22.20;99.90
20680;DHT22;10499;47.494;7.608;2022-07-04T06:58:00;22.30;99.90
20680;DHT22;10499;47.494;7.608;2022-07-04T07:00:26;22.30;99.90
20680;DHT22;10499;47.494;7.608;2022-07-04T07:02:51;22.30;99.90
20680;DHT22;10499;47.494;7.608;2022-07-04T07:05:17;22.40;99.90
20680;DHT22;10499;47.494;7.608;2022-07-04T07:07:42;22.40;99.90
20680;DHT22;10499;47.494;7.608;2022-07-04T07:10:08;22.60;99.90
20680;DHT22;10499;47.494;7.608;2022-07-04T07:12:34;22.70;99.90
20680;DHT22;10499;47.494;7.608;2022-07-04T07:15:01;22.60;99.90
20680;DHT22;10499;47.494;7.608;2022-07-04T07:17:27;22.60;99.90
20680;DHT22;10499;47.494;7.608;2022-07-04T07:19:54;22.50;99.90
20680;DHT22;10499;47.494;7.608;2022-07-04T07:22:20;22.50;99.90
20680;DHT22;10499;47.494;7.608;2022-07-04T07:24:45;22.50;99.90
20680;DHT22;10499;47.494;7.608;2022-07-04T07:27:11;22.60;99.90
20680;DHT22;10499;47.494;7.608;2022-07-04T07:29:37;22.60;99.90
20680;DHT22;10499;47.494;7.608;2022-07-04T07:32:03;22.70;99.90
20680;DHT22;10499;47.494;7.608;2022-07-04T07:34:29;22.80;99.90
20680;DHT22;10499;47.494;7.608;2022-07-04T07:36:55;23.10;99.90
20680;DHT22;10499;47.494;7.608;2022-07-04T07:39:21;23.30;99.90
20680;DHT22;10499;47.494;7.608;2022-07-04T07:41:47;23.50;99.90
20680;DHT22;10499;47.494;7.608;2022-07-04T07:44:12;23.70;99.90
20680;DHT22;10499;47.494;7.608;2022-07-04T07:46:38;23.70;99.00
20680;DHT22;10499;47.494;7.608;2022-07-04T07:49:04;23.80;99.70
20680;DHT22;10499;47.494;7.608;2022-07-04T07:51:30;23.90;99.00
20680;DHT22;10499;47.494;7.608;2022-07-04T07:53:56;23.90;97.50
20680;DHT22;10499;47.494;7.608;2022-07-04T07:56:22;23.70;97.40
20680;DHT22;10499;47.494;7.608;2022-07-04T07:58:48;23.70;97.00
20680;DHT22;10499;47.494;7.608;2022-07-04T08:01:14;23.90;97.50
20680;DHT22;10499;47.494;7.608;2022-07-04T08:03:40;23.90;97.10
20680;DHT22;10499;47.494;7.608;2022-07-04T08:06:24;24.00;96.60
20680;DHT22;10499;47.494;7.608;2022-07-04T08:08:49;24.10;96.50
20680;DHT22;10499;47.494;7.608;2022-07-04T08:11:16;24.20;95.80
20680;DHT22;10499;47.494;7.608;2022-07-04T08:13:42;24.30;96.20
20680;DHT22;10499;47.494;7.608;2022-07-04T08:16:08;24.40;95.60
20680;DHT22;10499;47.494;7.608;2022-07-04T08:18:34;24.50;94.70
20680;DHT22;10499;47.494;7.608;2022-07-04T08:20:59;24.50;94.20
20680;DHT22;10499;47.494;7.608;2022-07-04T08:23:26;24.60;93.90
20680;DHT22;10499;47.494;7.608;2022-07-04T08:25:51;24.60;92.70
20680;DHT22;10499;47.494;7.608;2022-07-04T08:28:17;24.50;92.90
20680;DHT22;10499;47.494;7.608;2022-07-04T08:30:43;24.50;93.20
20680;DHT22;10499;47.494;7.608;2022-07-04T08:33:08;24.70;92.80
20680;DHT22;10499;47.494;7.608;2022-07-04T08:35:34;24.80;92.70
20680;DHT22;10499;47.494;7.608;2022-07-04T08:38:00;25.00;92.30
20680;DHT22;10499;47.494;7.608;2022-07-04T08:40:26;25.20;91.90
20680;DHT22;10499;47.494;7.608;2022-07-04T08:42:53;25.40;91.80
20680;DHT22;10499;47.494;7.608;2022-07-04T08:45:26;25.60;91.30
20680;DHT22;10499;47.494;7.608;2022-07-04T08:47:58;25.80;91.00
20680;DHT22;10499;47.494;7.608;2022-07-04T08:50:29;26.10;90.10
20680;DHT22;10499;47.494;7.608;2022-07-04T08:53:06;26.40;89.50
20680;DHT22;10499;47.494;7.608;2022-07-04T08:55:32;26.90;89.20
20680;DHT22;10499;47.494;7.608;2022-07-04T08:58:18;27.30;86.70
20680;DHT22;10499;47.494;7.608;2022-07-04T09:00:57;27.80;84.20
20680;DHT22;10499;47.494;7.608;2022-07-04T09:03:24;28.30;83.90
20680;DHT22;10499;47.494;7.608;2022-07-04T09:05:51;28.50;81.50
20680;DHT22;10499;47.494;7.608;2022-07-04T09:08:16;28.70;79.40
20680;DHT22;10499;47.494;7.608;2022-07-04T09:10:42;28.90;79.20
20680;DHT22;10499;47.494;7.608;2022-07-04T09:13:10;29.00;77.40
20680;DHT22;10499;47.494;7.608;2022-07-04T09:15:36;29.20;77.30
20680;DHT22;10499;47.494;7.608;2022-07-04T09:18:02;29.10;78.10
20680;DHT22;10499;47.494;7.608;2022-07-04T09:20:31;29.20;77.80
20680;DHT22;10499;47.494;7.608;2022-07-04T09:22:56;29.60;76.50
20680;DHT22;10499;47.494;7.608;2022-07-04T09:25:24;29.70;74.30
20680;DHT22;10499;47.494;7.608;2022-07-04T09:27:52;29.70;73.50
20680;DHT22;10499;47.494;7.608;2022-07-04T09:30:21;29.60;73.90
20680;DHT22;10499;47.494;7.608;2022-07-04T09:32:48;29.30;74.80
20680;DHT22;10499;47.494;7.608;2022-07-04T09:35:23;29.30;75.40
20680;DHT22;10499;47.494;7.608;2022-07-04T09:37:51;30.80;71.00
20680;DHT22;10499;47.494;7.608;2022-07-04T09:40:43;32.00;67.10
20680;DHT22;10499;47.494;7.608;2022-07-04T09:43:27;35.50;59.20
20680;DHT22;10499;47.494;7.608;2022-07-04T09:46:00;36.40;55.00
20680;DHT22;10499;47.494;7.608;2022-07-04T09:48:26;35.80;54.50
20680;DHT22;10499;47.494;7.608;2022-07-04T09:51:12;37.70;52.20
20680;DHT22;10499;47.494;7.608;2022-07-04T09:53:37;37.30;51.10
20680;DHT22;10499;47.494;7.608;2022-07-04T09:56:03;36.10;52.20
20680;DHT22;10499;47.494;7.608;2022-07-04T09:58:29;35.10;54.40
20680;DHT22;10499;47.494;7.608;2022-07-04T10:00:59;35.50;54.20
20680;DHT22;10499;47.494;7.608;2022-07-04T10:03:30;38.00;50.30
20680;DHT22;10499;47.494;7.608;2022-07-04T10:06:02;39.10;46.00
20680;DHT22;10499;47.494;7.608;2022-07-04T10:08:28;39.10;46.70
20680;DHT22;10499;47.494;7.608;2022-07-04T10:11:00;40.60;45.00
20680;DHT22;10499;47.494;7.608;2022-07-04T10:13:26;42.60;42.00
20680;DHT22;10499;47.494;7.608;2022-07-04T10:15:53;45.30;37.20
20680;DHT22;10499;47.494;7.608;2022-07-04T10:18:20;45.30;36.40
20680;DHT22;10499;47.494;7.608;2022-07-04T10:20:47;44.30;36.50
20680;DHT22;10499;47.494;7.608;2022-07-04T10:23:14;43.40;38.90
20680;DHT22;10499;47.494;7.608;2022-07-04T10:25:40;44.30;38.40
20680;DHT22;10499;47.494;7.608;2022-07-04T10:28:08;45.50;36.10
20680;DHT22;10499;47.494;7.608;2022-07-04T10:30:36;44.20;36.50
20680;DHT22;10499;47.494;7.608;2022-07-04T10:33:04;44.00;36.50
20680;DHT22;10499;47.494;7.608;2022-07-04T10:35:51;45.40;35.00
20680;DHT22;10499;47.494;7.608;2022-07-04T10:41:02;47.40;32.50
20680;DHT22;10499;47.494;7.608;2022-07-04T10:46:26;49.90;29.40
20680;DHT22;10499;47.494;7.608;2022-07-04T10:49:16;48.10;30.40
20680;DHT22;10499;47.494;7.608;2022-07-04T10:51:44;49.60;29.30
20680;DHT22;10499;47.494;7.608;2022-07-04T10:54:29;49.30;29.90
20680;DHT22;10499;47.494;7.608;2022-07-04T10:56:57;47.40;30.60
20680;DHT22;10499;47.494;7.608;2022-07-04T10:59:31;45.40;33.20
20680;DHT22;10499;47.494;7.608;2022-07-04T11:18:02;33.80;52.10
20680;DHT22;10499;47.494;7.608;2022-07-04T11:20:31;33.50;52.20
20680;DHT22;10499;47.494;7.608;2022-07-04T11:23:11;33.40;52.50
20680;DHT22;10499;47.494;7.608;2022-07-04T11:25:38;33.90;52.60
20680;DHT22;10499;47.494;7.608;2022-07-04T11:28:24;34.00;51.10
20680;DHT22;10499;47.494;7.608;2022-07-04T11:30:58;33.90;50.10
20680;DHT22;10499;47.494;7.608;2022-07-04T11:33:32;33.70;50.50
20680;DHT22;10499;47.494;7.608;2022-07-04T11:36:09;33.40;50.90
20680;DHT22;10499;47.494;7.608;2022-07-04T11:38:56;33.30;51.80
20680;DHT22;10499;47.494;7.608;2022-07-04T11:41:31;33.10;51.40
20680;DHT22;10499;47.494;7.608;2022-07-04T11:44:17;32.90;51.50
20680;DHT22;10499;47.494;7.608;2022-07-04T11:49:55;33.50;51.30
20680;DHT22;10499;47.494;7.608;2022-07-04T11:52:23;33.90;49.60
20680;DHT22;10499;47.494;7.608;2022-07-04T11:54:50;36.00;47.30
20680;DHT22;10499;47.494;7.608;2022-07-04T11:57:19;36.50;44.80
20680;DHT22;10499;47.494;7.608;2022-07-04T11:59:56;35.70;46.70
20680;DHT22;10499;47.494;7.608;2022-07-04T12:02:22;35.30;47.40
20680;DHT22;10499;47.494;7.608;2022-07-04T12:04:48;35.20;47.50
20680;DHT22;10499;47.494;7.608;2022-07-04T12:07:16;35.30;47.20
20680;DHT22;10499;47.494;7.608;2022-07-04T12:09:43;35.10;47.20
20680;DHT22;10499;47.494;7.608;2022-07-04T12:12:13;37.10;45.10
20680;DHT22;10499;47.494;7.608;2022-07-04T12:14:40;40.10;40.50
20680;DHT22;10499;47.494;7.608;2022-07-04T12:17:20;42.20;36.80
20680;DHT22;10499;47.494;7.608;2022-07-04T12:19:53;43.40;35.00
20680;DHT22;10499;47.494;7.608;2022-07-04T12:22:30;43.00;34.30
20680;DHT22;10499;47.494;7.608;2022-07-04T12:24:57;43.90;34.20
20680;DHT22;10499;47.494;7.608;2022-07-04T12:27:23;44.60;33.40
20680;DHT22;10499;47.494;7.608;2022-07-04T12:29:50;45.00;32.50
20680;DHT22;10499;47.494;7.608;2022-07-04T12:32:16;45.30;32.30
20680;DHT22;10499;47.494;7.608;2022-07-04T12:34:44;43.80;33.10
20680;DHT22;10499;47.494;7.608;2022-07-04T12:37:15;41.00;36.30
20680;DHT22;10499;47.494;7.608;2022-07-04T12:39:43;39.10;39.10
20680;DHT22;10499;47.494;7.608;2022-07-04T12:42:14;38.30;40.50
20680;DHT22;10499;47.494;7.608;2022-07-04T12:44:45;38.70;40.30
20680;DHT22;10499;47.494;7.608;2022-07-04T12:47:14;38.50;40.00
20680;DHT22;10499;47.494;7.608;2022-07-04T12:49:46;37.70;40.70
20680;DHT22;10499;47.494;7.608;2022-07-04T12:52:16;36.40;43.20
20680;DHT22;10499;47.494;7.608;2022-07-04T12:54:43;35.00;45.60
20680;DHT22;10499;47.494;7.608;2022-07-04T12:57:16;33.70;48.30
20680;DHT22;10499;47.494;7.608;2022-07-04T12:59:47;32.70;49.50
20680;DHT22;10499;47.494;7.608;2022-07-04T13:02:13;31.90;51.40
20680;DHT22;10499;47.494;7.608;2022-07-04T13:04:40;31.20;52.70
20680;DHT22;10499;47.494;7.608;2022-07-04T13:07:18;30.70;54.00
20680;DHT22;10499;47.494;7.608;2022-07-04T13:09:45;30.50;55.00
20680;DHT22;10499;47.494;7.608;2022-07-04T13:12:18;30.20;56.80
20680;DHT22;10499;47.494;7.608;2022-07-04T13:14:58;29.90;58.00
20680;DHT22;10499;47.494;7.608;2022-07-04T13:17:25;29.50;58.20
20680;DHT22;10499;47.494;7.608;2022-07-04T13:19:51;29.30;58.10
20680;DHT22;10499;47.494;7.608;2022-07-04T13:22:22;29.10;58.40
20680;DHT22;10499;47.494;7.608;2022-07-04T13:24:50;29.00;60.60
20680;DHT22;10499;47.494;7.608;2022-07-04T13:27:17;28.80;58.80
20680;DHT22;10499;47.494;7.608;2022-07-04T13:29:46;28.70;61.10
20680;DHT22;10499;47.494;7.608;2022-07-04T13:32:18;28.50;60.80
20680;DHT22;10499;47.494;7.608;2022-07-04T13:34:46;28.40;60.20
20680;DHT22;10499;47.494;7.608;2022-07-04T13:37:15;28.50;60.80
20680;DHT22;10499;47.494;7.608;2022-07-04T13:39:44;28.60;62.40
20680;DHT22;10499;47.494;7.608;2022-07-04T13:42:11;28.60;62.10
20680;DHT22;10499;47.494;7.608;2022-07-04T13:44:37;28.60;61.40
20680;DHT22;10499;47.494;7.608;2022-07-04T13:47:04;28.60;60.70
20680;DHT22;10499;47.494;7.608;2022-07-04T13:49:30;28.60;60.70
20680;DHT22;10499;47.494;7.608;2022-07-04T13:51:56;28.60;61.10
20680;DHT22;10499;47.494;7.608;2022-07-04T13:54:21;28.70;61.30
20680;DHT22;10499;47.494;7.608;2022-07-04T13:56:47;28.70;60.30
20680;DHT22;10499;47.494;7.608;2022-07-04T13:59:13;28.80;60.70
20680;DHT22;10499;47.494;7.608;2022-07-04T14:01:39;28.80;60.70
20680;DHT22;10499;47.494;7.608;2022-07-04T14:04:07;28.80;60.50
20680;DHT22;10499;47.494;7.608;2022-07-04T14:06:38;28.80;60.00
20680;DHT22;10499;47.494;7.608;2022-07-04T14:09:04;28.80;60.30
20680;DHT22;10499;47.494;7.608;2022-07-04T14:11:30;28.80;60.40
20680;DHT22;10499;47.494;7.608;2022-07-04T14:13:56;28.80;61.00
20680;DHT22;10499;47.494;7.608;2022-07-04T14:16:22;28.80;61.40
20680;DHT22;10499;47.494;7.608;2022-07-04T14:18:48;28.80;62.00
20680;DHT22;10499;47.494;7.608;2022-07-04T14:21:13;28.80;61.20
20680;DHT22;10499;47.494;7.608;2022-07-04T14:23:46;29.00;63.40
20680;DHT22;10499;47.494;7.608;2022-07-04T14:26:15;29.10;61.80
20680;DHT22;10499;47.494;7.608;2022-07-04T14:28:42;29.20;61.40
20680;DHT22;10499;47.494;7.608;2022-07-04T14:31:10;29.30;62.10
20680;DHT22;10499;47.494;7.608;2022-07-04T14:33:36;29.40;59.70
20680;DHT22;10499;47.494;7.608;2022-07-04T14:36:08;29.60;61.30
20680;DHT22;10499;47.494;7.608;2022-07-04T14:38:52;29.70;60.00
20680;DHT22;10499;47.494;7.608;2022-07-04T14:41:18;29.80;58.70
20680;DHT22;10499;47.494;7.608;2022-07-04T14:43:44;29.70;58.80
20680;DHT22;10499;47.494;7.608;2022-07-04T14:46:13;29.60;58.70
20680;DHT22;10499;47.494;7.608;2022-07-04T14:48:39;29.50;59.50
20680;DHT22;10499;47.494;7.608;2022-07-04T14:51:05;29.30;59.40
20680;DHT22;10499;47.494;7.608;2022-07-04T14:53:31;29.10;59.40
20680;DHT22;10499;47.494;7.608;2022-07-04T14:55:57;29.10;59.60
20680;DHT22;10499;47.494;7.608;2022-07-04T14:58:23;29.00;60.00
20680;DHT22;10499;47.494;7.608;2022-07-04T15:00:52;29.00;61.70
20680;DHT22;10499;47.494;7.608;2022-07-04T15:03:17;29.00;62.50
20680;DHT22;10499;47.494;7.608;2022-07-04T15:05:43;29.00;59.80
20680;DHT22;10499;47.494;7.608;2022-07-04T15:08:16;29.10;61.50
20680;DHT22;10499;47.494;7.608;2022-07-04T15:10:42;29.30;60.50
20680;DHT22;10499;47.494;7.608;2022-07-04T15:13:08;29.30;59.80
20680;DHT22;10499;47.494;7.608;2022-07-04T15:15:34;29.30;58.80
20680;DHT22;10499;47.494;7.608;2022-07-04T15:18:00;29.30;58.50
20680;DHT22;10499;47.494;7.608;2022-07-04T15:20:28;29.40;57.70
20680;DHT22;10499;47.494;7.608;2022-07-04T15:23:13;29.60;59.30
20680;DHT22;10499;47.494;7.608;2022-07-04T15:28:26;30.30;56.80
20680;DHT22;10499;47.494;7.608;2022-07-04T15:30:52;30.40;55.90
20680;DHT22;10499;47.494;7.608;2022-07-04T15:33:20;30.70;56.20
20680;DHT22;10499;47.494;7.608;2022-07-04T15:35:53;31.20;54.80
20680;DHT22;10499;47.494;7.608;2022-07-04T15:41:16;31.70;53.50
20680;DHT22;10499;47.494;7.608;2022-07-04T15:43:47;31.80;52.70
20680;DHT22;10499;47.494;7.608;2022-07-04T15:48:49;32.00;53.40
20680;DHT22;10499;47.494;7.608;2022-07-04T15:51:15;31.80;53.40
20680;DHT22;10499;47.494;7.608;2022-07-04T15:53:41;31.70;53.20
20680;DHT22;10499;47.494;7.608;2022-07-04T15:56:06;32.00;52.20
20680;DHT22;10499;47.494;7.608;2022-07-04T15:58:32;32.40;51.50
20680;DHT22;10499;47.494;7.608;2022-07-04T16:00:58;32.60;51.80
20680;DHT22;10499;47.494;7.608;2022-07-04T16:03:23;32.70;51.50
20680;DHT22;10499;47.494;7.608;2022-07-04T16:05:49;32.60;50.70